CheckWX is a tool to help pilots better visualize weather data.  It is not intended as a substitute for an official pre-flight weather briefing.

11:09:48 UTC

PAEI METAR
Eielson AFB Airport
Fairbanks, Alaska, USA
Current

1 hour ago

PAEI 270956Z AUTO 00000KT 10SM CLR 05/02 A3021 RMK AO2 SLP236 T00520019 $
Observed
May-27 @ 09:56 UTC
Visibility
Flight Rules
VFR
Cloud Levels
  • Clear skies
Temperature
C / 41°F
Dewpoint
C / 36°F
Humidity
81%
Altimeter
30.21" Hg
Pressure
1023.02 hPa
Previous

2 hours ago

PAEI 270856Z AUTO 00000KT 10SM CLR 08/04 A3019 RMK AO2 SLP229 T00800035 401580061 52019 $
Observed
May-27 @ 08:56 UTC
Visibility
Flight Rules
VFR
Cloud Levels
  • Clear skies
Dewpoint
C / 39°F
Humidity
76%
Altimeter
30.19" Hg
Pressure
1022.32 hPa
Previous

3 hours ago

PAEI 270756Z AUTO 00000KT 10SM FEW070 08/04 A3017 RMK AO2 SLP222 T00770043 $
Observed
May-27 @ 07:56 UTC
Visibility
Flight Rules
VFR
Cloud Levels
  • Few at 7,000' AGL
Temperature
C / 46°F
Dewpoint
C / 39°F
Humidity
76%
Altimeter
30.17" Hg
Pressure
1021.72 hPa